createdAt,value
2019-04-16T00:01:44.395Z,11.97
2019-04-16T00:04:30.617Z,10.47
2019-04-16T00:07:17.734Z,11.73
2019-04-16T00:10:06.767Z,10.37
2019-04-16T00:12:49.170Z,13.97
2019-04-16T00:15:17.870Z,18.93
2019-04-16T00:17:47.276Z,16.00
2019-04-16T00:20:16.813Z,13.60
2019-04-16T00:23:03.270Z,13.63
2019-04-16T00:25:31.934Z,15.37
2019-04-16T00:28:00.878Z,13.77
2019-04-16T00:30:29.665Z,12.57
2019-04-16T00:32:58.309Z,12.57
2019-04-16T00:35:26.862Z,12.83
2019-04-16T00:37:55.435Z,13.67
2019-04-16T00:40:26.393Z,12.37
2019-04-16T00:42:54.302Z,13.43
2019-04-16T00:45:22.873Z,12.07
2019-04-16T00:47:52.165Z,12.13
2019-04-16T00:50:21.180Z,12.43
2019-04-16T00:52:49.778Z,13.93
2019-04-16T00:55:18.618Z,14.93
2019-04-16T00:57:48.595Z,14.27
2019-04-16T01:00:17.551Z,12.27
2019-04-16T01:02:47.017Z,10.43
2019-04-16T01:05:15.766Z,16.33
2019-04-16T01:07:44.309Z,14.67
2019-04-16T01:10:12.938Z,14.67
2019-04-16T01:12:41.512Z,11.57
2019-04-16T01:15:10.370Z,14.80
2019-04-16T01:17:39.017Z,14.90
2019-04-16T01:20:11.819Z,17.30
2019-04-16T01:22:38.398Z,13.43
2019-04-16T01:25:07.701Z,13.63
2019-04-16T01:27:40.693Z,13.83
2019-04-16T01:30:11.847Z,13.33
2019-04-16T01:32:51.141Z,15.37
2019-04-16T01:35:37.531Z,14.93
2019-04-16T01:38:16.527Z,16.80
2019-04-16T01:40:47.383Z,18.13
2019-04-16T01:43:16.969Z,15.40
2019-04-16T01:45:45.532Z,16.43
2019-04-16T01:48:14.119Z,14.37
2019-04-16T01:50:43.786Z,16.60
2019-04-16T01:53:13.050Z,13.03
2019-04-16T01:55:42.516Z,15.30
2019-04-16T01:58:11.334Z,18.67
2019-04-16T02:00:40.058Z,16.03
2019-04-16T02:03:08.762Z,15.93
2019-04-16T02:05:37.471Z,17.43
2019-04-16T02:08:06.161Z,16.77
2019-04-16T02:10:35.497Z,15.97
2019-04-16T02:13:05.270Z,17.30
2019-04-16T02:15:34.311Z,17.17
2019-04-16T02:18:02.825Z,20.63
2019-04-16T02:20:31.379Z,16.97
2019-04-16T02:22:59.969Z,20.57
2019-04-16T02:25:28.518Z,16.90
2019-04-16T02:27:57.761Z,15.30
2019-04-16T02:30:26.379Z,16.67
2019-04-16T02:32:54.949Z,17.43
2019-04-16T02:35:23.525Z,18.20
2019-04-16T02:37:52.410Z,16.30
2019-04-16T02:40:20.966Z,17.20
2019-04-16T02:42:49.567Z,19.47
2019-04-16T02:45:22.981Z,16.53
2019-04-16T02:47:48.351Z,20.63
2019-04-16T02:50:18.634Z,20.93
2019-04-16T02:52:52.598Z,19.43
2019-04-16T02:55:28.582Z,15.67
2019-04-16T02:58:13.933Z,20.10
2019-04-16T03:01:00.557Z,19.93
2019-04-16T03:03:42.616Z,16.20
2019-04-16T03:06:11.170Z,17.07
2019-04-16T03:08:39.743Z,18.87
2019-04-16T03:11:08.350Z,17.40
2019-04-16T03:13:36.900Z,19.07
2019-04-16T03:16:09.830Z,17.30
2019-04-16T03:18:46.953Z,18.63
2019-04-16T03:21:13.612Z,17.63
2019-04-16T03:23:42.258Z,17.23
2019-04-16T03:26:16.397Z,18.97
2019-04-16T03:28:41.030Z,20.00
2019-04-16T03:31:18.367Z,21.27
2019-04-16T03:33:48.191Z,21.73
2019-04-16T03:36:10.713Z,17.23
2019-04-16T03:38:42.034Z,21.87
2019-04-16T03:41:09.507Z,17.07
2019-04-16T03:43:38.409Z,19.70
2019-04-16T03:46:12.149Z,16.70
2019-04-16T03:48:37.220Z,19.27
2019-04-16T03:51:05.892Z,17.87
2019-04-16T03:53:34.443Z,18.80
2019-04-16T03:56:03.375Z,19.37
2019-04-16T03:58:31.945Z,21.07
2019-04-16T04:01:00.510Z,19.63
2019-04-16T04:03:29.190Z,22.00
2019-04-16T04:05:57.806Z,20.03
2019-04-16T04:08:26.644Z,24.23
2019-04-16T04:10:55.407Z,22.13
2019-04-16T04:13:24.082Z,26.23
2019-04-16T04:15:55.000Z,21.90
2019-04-16T04:18:23.075Z,21.97
2019-04-16T04:20:51.655Z,19.83
2019-04-16T04:23:20.232Z,22.93
2019-04-16T04:25:48.838Z,17.17
2019-04-16T04:28:19.684Z,28.13
2019-04-16T04:30:48.950Z,21.40
2019-04-16T04:33:41.393Z,21.20
2019-04-16T04:36:11.695Z,23.87
2019-04-16T04:38:40.518Z,27.07
2019-04-16T04:41:09.671Z,24.07
2019-04-16T04:43:38.357Z,27.70
2019-04-16T04:46:12.902Z,21.90
2019-04-16T04:48:37.500Z,22.70
2019-04-16T04:51:07.999Z,25.10
2019-04-16T04:53:36.283Z,23.00
2019-04-16T04:56:05.411Z,24.43
2019-04-16T04:58:34.788Z,23.80
2019-04-16T05:01:03.610Z,23.60
2019-04-16T05:03:44.366Z,24.80
2019-04-16T05:06:14.803Z,25.50
2019-04-16T05:08:44.174Z,29.97
2019-04-16T05:11:15.574Z,24.03
2019-04-16T05:13:42.964Z,26.87
2019-04-16T05:16:11.559Z,26.70
2019-04-16T05:18:41.950Z,23.47
2019-04-16T05:21:10.339Z,24.20
2019-04-16T05:23:38.997Z,26.47
2019-04-16T05:26:09.785Z,25.23
2019-04-16T05:28:37.855Z,27.53
2019-04-16T05:31:06.438Z,26.17
2019-04-16T05:33:37.336Z,22.33
2019-04-16T05:36:05.702Z,23.63
2019-04-16T05:38:34.660Z,25.60
2019-04-16T05:41:13.094Z,27.17
2019-04-16T05:43:33.455Z,27.93
2019-04-16T05:46:02.008Z,28.10
2019-04-16T05:48:30.579Z,25.80
2019-04-16T05:50:59.921Z,24.20
2019-04-16T05:53:29.227Z,27.17
2019-04-16T05:56:02.482Z,27.70
2019-04-16T05:58:31.596Z,27.87
2019-04-16T06:01:01.859Z,25.07
2019-04-16T06:03:30.426Z,27.23
2019-04-16T06:05:59.348Z,25.83
2019-04-16T06:08:28.632Z,31.40
2019-04-16T06:10:57.630Z,25.67
2019-04-16T06:13:30.891Z,21.53
2019-04-16T06:16:03.882Z,31.90
2019-04-16T06:18:38.107Z,24.33
2019-04-16T06:21:08.359Z,27.33
2019-04-16T06:23:44.643Z,24.53
2019-04-16T06:26:20.943Z,25.13
2019-04-16T06:28:56.393Z,22.57
2019-04-16T06:31:31.490Z,28.00
2019-04-16T06:34:10.949Z,26.63
2019-04-16T06:36:50.388Z,22.60
2019-04-16T06:39:23.485Z,25.90
2019-04-16T06:42:12.055Z,28.03
2019-04-16T06:44:42.353Z,25.43
2019-04-16T06:47:15.578Z,25.80
2019-04-16T06:49:54.619Z,28.83
2019-04-16T06:52:43.091Z,25.20
2019-04-16T06:55:19.696Z,22.67
2019-04-16T06:57:52.830Z,23.07
2019-04-16T07:00:35.270Z,28.67
2019-04-16T07:03:14.746Z,25.53
2019-04-16T07:05:48.026Z,24.87
2019-04-16T07:08:37.498Z,29.57
2019-04-16T07:11:01.894Z,23.63
2019-04-16T07:13:30.506Z,23.73
2019-04-16T07:15:59.071Z,25.03
2019-04-16T07:18:27.939Z,21.57
2019-04-16T07:20:56.702Z,24.07
2019-04-16T07:23:25.809Z,22.77
2019-04-16T07:25:54.803Z,24.87
2019-04-16T07:28:34.098Z,21.73
2019-04-16T07:31:20.266Z,22.00
2019-04-16T07:33:54.683Z,26.47
2019-04-16T07:36:30.998Z,24.93
2019-04-16T07:39:01.197Z,21.60
2019-04-16T07:41:42.785Z,21.97
2019-04-16T07:44:15.113Z,20.80
2019-04-16T07:47:02.076Z,17.97
2019-04-16T07:49:35.078Z,16.87
2019-04-16T07:52:12.290Z,16.17
2019-04-16T07:54:48.423Z,16.23
2019-04-16T07:57:17.021Z,14.83
2019-04-16T07:59:45.574Z,17.97
2019-04-16T08:02:14.132Z,18.87
2019-04-16T08:04:42.734Z,14.83
2019-04-16T08:07:11.282Z,14.37
2019-04-16T08:09:39.873Z,18.63
2019-04-16T08:12:16.561Z,14.97
2019-04-16T08:14:38.735Z,17.97
2019-04-16T08:17:07.314Z,10.80
2019-04-16T08:19:37.414Z,11.27
2019-04-16T08:22:06.249Z,10.72
2019-04-16T08:24:45.622Z,8.90
2019-04-16T08:27:17.957Z,11.50
2019-04-16T08:29:44.559Z,12.13
2019-04-16T08:32:16.058Z,10.07
2019-04-16T08:34:43.434Z,12.53
2019-04-16T08:37:12.005Z,8.50
2019-04-16T08:39:40.608Z,9.78
2019-04-16T08:42:09.173Z,9.30
2019-04-16T08:44:37.732Z,9.00
2019-04-16T08:47:11.609Z,10.83
2019-04-16T08:49:36.593Z,8.73
2019-04-16T08:52:09.835Z,8.57
2019-04-16T08:54:35.388Z,7.17
2019-04-16T08:57:04.433Z,8.97
2019-04-16T08:59:33.463Z,6.80
2019-04-16T09:02:02.022Z,8.23
2019-04-16T09:04:34.244Z,9.27
2019-04-16T09:07:11.605Z,8.10
2019-04-16T09:09:41.811Z,8.27
2019-04-16T09:12:10.812Z,7.43
2019-04-16T09:14:41.061Z,8.73
2019-04-16T09:17:11.248Z,7.57
2019-04-16T09:19:42.082Z,7.27
2019-04-16T09:22:15.517Z,6.97
2019-04-16T09:24:54.536Z,7.10
2019-04-16T09:27:33.981Z,9.03
2019-04-16T09:30:03.861Z,8.53
2019-04-16T09:32:40.394Z,7.60
2019-04-16T09:35:18.558Z,8.80
2019-04-16T09:37:54.723Z,12.40
2019-04-16T09:40:41.524Z,9.63
2019-04-16T09:43:20.715Z,8.00
2019-04-16T09:45:49.324Z,7.40
2019-04-16T09:48:17.943Z,9.27
2019-04-16T09:50:47.950Z,8.30
2019-04-16T09:53:16.685Z,8.93
2019-04-16T09:55:47.549Z,10.70
2019-04-16T09:58:22.382Z,12.17
2019-04-16T10:01:06.854Z,10.90
2019-04-16T10:03:37.199Z,8.17
2019-04-16T10:06:06.265Z,9.30
2019-04-16T10:08:34.881Z,8.53
2019-04-16T10:11:06.094Z,8.33
2019-04-16T10:13:36.021Z,8.77
2019-04-16T10:16:04.091Z,7.70
2019-04-16T10:18:35.270Z,9.00
2019-04-16T10:21:03.218Z,9.27
2019-04-16T10:23:49.638Z,11.00
2019-04-16T10:26:18.675Z,10.03
2019-04-16T10:28:48.074Z,9.63
2019-04-16T10:31:24.233Z,7.63
2019-04-16T10:33:52.862Z,7.70
2019-04-16T10:36:21.519Z,8.73
2019-04-16T10:38:54.779Z,6.93
2019-04-16T10:41:40.069Z,10.20
2019-04-16T10:44:21.942Z,9.48
2019-04-16T10:46:52.169Z,7.67
2019-04-16T10:49:25.169Z,7.53
2019-04-16T10:52:04.396Z,7.47
2019-04-16T10:54:38.138Z,7.43
2019-04-16T10:57:25.271Z,7.60
2019-04-16T11:00:01.312Z,6.63
2019-04-16T11:02:31.522Z,7.20
2019-04-16T11:05:15.373Z,6.20
2019-04-16T11:07:45.402Z,6.50
2019-04-16T11:10:14.130Z,6.37
2019-04-16T11:12:42.676Z,8.47
2019-04-16T11:15:13.202Z,6.23
2019-04-16T11:17:41.779Z,6.87
2019-04-16T11:20:10.576Z,6.67
2019-04-16T11:22:39.163Z,6.47
2019-04-16T11:25:07.936Z,5.63
2019-04-16T11:27:36.853Z,7.03
2019-04-16T11:30:09.315Z,6.80
2019-04-16T11:32:39.918Z,8.40
2019-04-16T11:35:08.350Z,7.20
2019-04-16T11:37:37.248Z,6.70
2019-04-16T11:40:06.142Z,6.27
2019-04-16T11:42:34.700Z,6.47
2019-04-16T11:45:05.058Z,7.70
2019-04-16T11:47:34.768Z,7.30
2019-04-16T11:50:04.380Z,7.97
2019-04-16T11:52:32.973Z,7.13
2019-04-16T11:55:01.507Z,7.80
2019-04-16T11:57:33.368Z,7.60
2019-04-16T12:00:07.702Z,7.83
2019-04-16T12:02:32.228Z,8.60
2019-04-16T12:05:02.474Z,6.80
2019-04-16T12:07:35.624Z,7.10
2019-04-16T12:10:16.484Z,7.57
2019-04-16T12:12:58.711Z,8.10
2019-04-16T12:15:40.801Z,7.43
2019-04-16T12:18:22.908Z,6.30
2019-04-16T12:21:05.146Z,7.40
2019-04-16T12:23:38.297Z,7.73
2019-04-16T12:26:24.123Z,9.27
2019-04-16T12:28:57.417Z,7.90
2019-04-16T12:31:27.957Z,6.70
2019-04-16T12:33:58.330Z,6.90
2019-04-16T12:36:44.607Z,9.67
2019-04-16T12:39:35.856Z,6.77
2019-04-16T12:42:05.328Z,6.77
2019-04-16T12:44:51.780Z,8.43
2019-04-16T12:47:24.495Z,6.57
2019-04-16T12:50:03.660Z,6.60
2019-04-16T12:52:42.502Z,7.20
2019-04-16T12:55:18.684Z,9.33
2019-04-16T12:57:54.454Z,7.33
2019-04-16T13:00:31.774Z,7.33
2019-04-16T13:03:18.391Z,7.70
2019-04-16T13:05:54.043Z,10.03
2019-04-16T13:08:26.051Z,10.10
2019-04-16T13:11:02.535Z,8.97
2019-04-16T13:13:49.040Z,10.00
2019-04-16T13:16:19.339Z,10.03
2019-04-16T13:19:08.151Z,10.93
2019-04-16T13:21:44.298Z,9.03
2019-04-16T13:24:17.258Z,12.80
2019-04-16T13:26:53.550Z,9.27
2019-04-16T13:29:22.227Z,9.40
2019-04-16T13:31:50.879Z,9.50
2019-04-16T13:34:19.482Z,9.50
2019-04-16T13:36:51.497Z,10.03
2019-04-16T13:39:22.871Z,9.20
2019-04-16T13:41:51.762Z,9.40
2019-04-16T13:44:27.486Z,8.57
2019-04-16T13:47:01.346Z,8.20
2019-04-16T13:49:33.966Z,10.03
2019-04-16T13:52:02.879Z,8.60
2019-04-16T13:54:35.863Z,22.63
2019-04-16T13:57:11.987Z,9.87
2019-04-16T14:00:03.085Z,8.60
2019-04-16T14:02:39.489Z,8.67
2019-04-16T14:05:10.979Z,10.87
2019-04-16T14:07:39.635Z,9.70
2019-04-16T14:10:08.542Z,13.37
2019-04-16T14:12:42.416Z,9.07
2019-04-16T14:15:09.289Z,9.63
2019-04-16T14:17:51.752Z,9.63
2019-04-16T14:20:12.636Z,8.67
2019-04-16T14:22:40.328Z,9.93
2019-04-16T14:25:09.692Z,11.37
2019-04-16T14:27:38.224Z,9.10
2019-04-16T14:30:10.314Z,12.67
2019-04-16T14:32:39.861Z,11.13
2019-04-16T14:35:10.250Z,10.10
2019-04-16T14:37:39.138Z,9.77
2019-04-16T14:40:12.417Z,8.80
2019-04-16T14:42:41.153Z,10.00
2019-04-16T14:45:14.629Z,9.33
2019-04-16T14:47:43.343Z,9.83
2019-04-16T14:50:13.768Z,10.60
2019-04-16T14:52:42.415Z,9.00
2019-04-16T14:55:12.838Z,9.37
2019-04-16T14:57:59.872Z,9.20
2019-04-16T15:00:48.330Z,8.80
2019-04-16T15:03:34.908Z,8.75
2019-04-16T15:06:05.542Z,7.67
2019-04-16T15:08:50.803Z,8.37
2019-04-16T15:11:23.746Z,7.57
2019-04-16T15:13:56.921Z,8.33
2019-04-16T15:16:41.903Z,7.60
2019-04-16T15:19:12.138Z,8.40
2019-04-16T15:21:58.773Z,7.73
2019-04-16T15:24:31.658Z,8.87
2019-04-16T15:27:01.797Z,9.15
2019-04-16T15:29:52.568Z,8.93
2019-04-16T15:32:38.380Z,8.93
2019-04-16T15:35:14.115Z,9.63
2019-04-16T15:37:45.106Z,11.60
2019-04-16T15:40:17.955Z,9.43
2019-04-16T15:42:51.344Z,7.33
2019-04-16T15:45:25.515Z,7.37
2019-04-16T15:48:05.053Z,7.60
2019-04-16T15:50:50.610Z,8.33
2019-04-16T15:53:33.020Z,6.50
2019-04-16T15:56:12.017Z,7.03
2019-04-16T15:58:48.386Z,6.63
2019-04-16T16:01:27.793Z,7.67
2019-04-16T16:03:58.011Z,7.47
2019-04-16T16:06:28.224Z,6.40
2019-04-16T16:08:58.440Z,7.23
2019-04-16T16:11:31.246Z,6.20
2019-04-16T16:14:01.426Z,7.63
2019-04-16T16:16:41.499Z,5.87
2019-04-16T16:19:00.946Z,8.20
2019-04-16T16:21:29.550Z,7.07
2019-04-16T16:23:58.263Z,6.80
2019-04-16T16:26:26.894Z,6.90
2019-04-16T16:28:55.469Z,6.30
2019-04-16T16:31:24.046Z,6.33
2019-04-16T16:33:52.599Z,6.63
2019-04-16T16:36:21.182Z,6.70
2019-04-16T16:38:49.744Z,7.27
2019-04-16T16:41:18.385Z,8.07
2019-04-16T16:43:46.975Z,8.00
2019-04-16T16:46:33.607Z,7.53
2019-04-16T16:49:02.528Z,8.73
2019-04-16T16:51:31.060Z,9.30
2019-04-16T16:54:17.486Z,8.90
2019-04-16T16:56:50.773Z,7.43
2019-04-16T16:59:37.503Z,6.93
2019-04-16T17:02:19.954Z,8.60
2019-04-16T17:04:53.153Z,8.87
2019-04-16T17:07:21.682Z,9.97
2019-04-16T17:09:50.269Z,9.03
2019-04-16T17:12:18.819Z,10.37
2019-04-16T17:14:47.740Z,7.30
2019-04-16T17:17:16.333Z,7.83
2019-04-16T17:19:45.951Z,8.53
2019-04-16T17:22:17.149Z,7.80
2019-04-16T17:24:44.838Z,8.10
2019-04-16T17:27:13.459Z,7.37
2019-04-16T17:29:42.034Z,8.10
2019-04-16T17:32:10.603Z,7.77
2019-04-16T17:34:39.929Z,6.80
2019-04-16T17:37:08.722Z,7.50
2019-04-16T17:39:42.249Z,7.30
2019-04-16T17:42:13.939Z,7.60
2019-04-16T17:44:56.114Z,8.40
2019-04-16T17:47:32.542Z,9.60
2019-04-16T17:50:07.228Z,8.83
2019-04-16T17:52:49.758Z,8.25
2019-04-16T17:55:23.255Z,7.60
2019-04-16T17:57:59.912Z,7.03
2019-04-16T18:00:37.740Z,9.77
2019-04-16T18:03:17.617Z,6.53
2019-04-16T18:05:50.850Z,6.80
2019-04-16T18:08:21.128Z,8.00
2019-04-16T18:10:57.055Z,6.80
2019-04-16T18:13:36.359Z,6.43
2019-04-16T18:16:16.724Z,7.93
2019-04-16T18:18:54.059Z,6.00
2019-04-16T18:21:36.591Z,6.53
2019-04-16T18:24:23.305Z,6.63
2019-04-16T18:27:11.802Z,7.30
2019-04-16T18:29:54.654Z,8.83
2019-04-16T18:32:27.729Z,6.53
2019-04-16T18:35:03.879Z,10.07
2019-04-16T18:37:37.586Z,16.03
2019-04-16T18:40:20.806Z,10.77
2019-04-16T18:43:03.498Z,11.00
2019-04-16T18:45:39.890Z,13.77
2019-04-16T18:48:26.801Z,10.40
2019-04-16T18:50:59.946Z,11.30
2019-04-16T18:53:28.092Z,12.70
2019-04-16T18:55:57.793Z,13.03
2019-04-16T18:58:26.907Z,14.17
2019-04-16T19:00:58.120Z,12.37
2019-04-16T19:03:27.990Z,11.07
2019-04-16T19:05:58.675Z,10.07
2019-04-16T19:08:41.006Z,10.80
2019-04-16T19:11:00.264Z,12.70
2019-04-16T19:13:30.344Z,9.70
2019-04-16T19:16:00.485Z,11.47
2019-04-16T19:18:30.879Z,9.23
2019-04-16T19:21:00.770Z,9.90
2019-04-16T19:23:30.740Z,9.80
2019-04-16T19:26:00.878Z,8.33
2019-04-16T19:28:30.801Z,11.63
2019-04-16T19:31:00.852Z,9.97
2019-04-16T19:33:37.871Z,11.20
2019-04-16T19:36:02.768Z,12.17
2019-04-16T19:38:32.578Z,9.03
2019-04-16T19:41:02.564Z,16.77
2019-04-16T19:43:35.262Z,15.53
2019-04-16T19:46:04.352Z,10.93
2019-04-16T19:48:36.064Z,14.70
2019-04-16T19:51:08.187Z,13.47
2019-04-16T19:53:38.215Z,12.30
2019-04-16T19:56:08.409Z,12.73
2019-04-16T19:58:38.108Z,12.93
2019-04-16T20:01:11.718Z,10.10
2019-04-16T20:03:38.792Z,12.33
2019-04-16T20:06:08.578Z,15.30
2019-04-16T20:08:40.015Z,17.23
2019-04-16T20:11:09.327Z,12.50
2019-04-16T20:13:38.480Z,26.77
2019-04-16T20:16:07.832Z,15.18
2019-04-16T20:18:50.325Z,17.23
2019-04-16T20:21:07.037Z,15.38
2019-04-16T20:23:35.799Z,13.77
2019-04-16T20:26:04.465Z,12.03
2019-04-16T20:28:33.019Z,17.80
2019-04-16T20:31:04.198Z,16.47
2019-04-16T20:33:31.810Z,17.50
2019-04-16T20:36:00.407Z,25.60
2019-04-16T20:38:29.951Z,24.97
2019-04-16T20:40:58.667Z,19.63
2019-04-16T20:43:27.314Z,20.47
2019-04-16T20:45:56.009Z,19.27
2019-04-16T20:48:24.880Z,18.37
2019-04-16T20:50:56.684Z,20.17
2019-04-16T20:53:23.684Z,22.07
2019-04-16T20:55:52.268Z,27.60
2019-04-16T20:58:20.934Z,27.27
2019-04-16T21:00:51.197Z,22.80
2019-04-16T21:03:22.571Z,24.17
2019-04-16T21:05:58.060Z,27.30
2019-04-16T21:08:24.230Z,52.70
2019-04-16T21:10:50.926Z,66.25
2019-04-16T21:13:19.927Z,61.63
2019-04-16T21:15:48.805Z,57.07
2019-04-16T21:18:17.377Z,60.17
2019-04-16T21:20:50.869Z,59.63
2019-04-16T21:23:16.178Z,50.33
2019-04-16T21:25:45.973Z,56.10
2019-04-16T21:28:19.259Z,65.17
2019-04-16T21:30:49.501Z,76.17
2019-04-16T21:33:36.438Z,82.97
2019-04-16T21:36:06.676Z,65.17
2019-04-16T21:38:45.192Z,68.73
2019-04-16T21:41:12.703Z,53.20
2019-04-16T21:43:41.277Z,49.10
2019-04-16T21:46:09.838Z,50.10
2019-04-16T21:48:38.797Z,46.63
2019-04-16T21:51:07.718Z,39.90
2019-04-16T21:53:36.784Z,39.27
2019-04-16T21:56:08.484Z,35.87
2019-04-16T21:58:37.217Z,39.67
2019-04-16T22:01:10.519Z,32.50
2019-04-16T22:03:42.224Z,32.67
2019-04-16T22:06:09.311Z,31.87
2019-04-16T22:08:37.966Z,27.10
2019-04-16T22:11:08.811Z,27.77
2019-04-16T22:13:36.742Z,29.93
2019-04-16T22:16:05.577Z,28.63
2019-04-16T22:18:34.154Z,28.03
2019-04-16T22:21:02.827Z,23.17
2019-04-16T22:23:31.402Z,30.73
2019-04-16T22:26:01.463Z,26.40
2019-04-16T22:28:30.200Z,25.87
2019-04-16T22:30:58.786Z,24.23
2019-04-16T22:33:27.427Z,23.70
2019-04-16T22:35:56.042Z,33.67
2019-04-16T22:38:25.401Z,27.30
2019-04-16T22:40:58.534Z,31.63
2019-04-16T22:43:45.406Z,24.37
2019-04-16T22:46:15.603Z,25.73
2019-04-16T22:48:58.388Z,24.30
2019-04-16T22:51:27.174Z,23.93
2019-04-16T22:53:55.814Z,26.17
2019-04-16T22:56:28.503Z,25.20
2019-04-16T22:58:56.675Z,23.00
2019-04-16T23:01:26.895Z,22.00
2019-04-16T23:03:55.569Z,21.67
2019-04-16T23:06:24.190Z,20.93
2019-04-16T23:08:52.747Z,22.20
2019-04-16T23:11:23.682Z,27.40
2019-04-16T23:13:51.552Z,30.57
2019-04-16T23:16:20.154Z,20.67
2019-04-16T23:18:49.341Z,20.00
2019-04-16T23:21:18.695Z,21.00
2019-04-16T23:23:47.607Z,14.93
2019-04-16T23:26:17.496Z,15.70
2019-04-16T23:28:46.055Z,18.87
2019-04-16T23:31:14.645Z,18.27
2019-04-16T23:33:43.202Z,15.70
2019-04-16T23:36:15.418Z,15.07
2019-04-16T23:38:42.370Z,16.37
2019-04-16T23:41:15.798Z,17.23
2019-04-16T23:43:45.750Z,19.07
2019-04-16T23:46:18.662Z,18.57
2019-04-16T23:48:51.573Z,17.60
2019-04-16T23:51:29.063Z,19.20
2019-04-16T23:54:14.753Z,21.83
2019-04-16T23:56:53.089Z,16.60
2019-04-16T23:59:23.384Z,17.07
